createdAt,value
2023-03-11T00:00:00.435Z,0.85
2023-03-11T00:02:27.030Z,0.91
2023-03-11T00:04:53.495Z,0.86
2023-03-11T00:07:19.991Z,0.86
2023-03-11T00:09:46.833Z,0.80
2023-03-11T00:12:15.418Z,0.78
2023-03-11T00:14:41.912Z,0.77
2023-03-11T00:17:08.393Z,0.72
2023-03-11T00:19:34.842Z,0.71
2023-03-11T00:22:03.085Z,0.75
2023-03-11T00:24:29.877Z,0.74
2023-03-11T00:26:56.367Z,0.76
2023-03-11T00:29:22.856Z,0.72
2023-03-11T00:31:49.353Z,0.73
2023-03-11T00:34:15.886Z,0.74
2023-03-11T00:36:42.472Z,0.71
2023-03-11T00:39:10.997Z,0.68
2023-03-11T00:41:37.824Z,0.75
2023-03-11T00:44:04.428Z,0.74
2023-03-11T00:46:32.482Z,0.75
2023-03-11T00:48:59.005Z,0.73
2023-03-11T00:51:25.563Z,0.72
2023-03-11T00:53:52.091Z,0.71
2023-03-11T00:56:18.576Z,0.71
2023-03-11T00:58:45.850Z,0.75
2023-03-11T01:01:15.953Z,0.75
2023-03-11T01:03:43.106Z,0.71
2023-03-11T01:06:09.852Z,0.75
2023-03-11T01:08:36.870Z,0.71
2023-03-11T01:11:04.805Z,0.69
2023-03-11T01:13:32.431Z,0.70
2023-03-11T01:15:59.390Z,0.65
2023-03-11T01:18:26.154Z,0.63
2023-03-11T01:20:53.280Z,0.62
2023-03-11T01:23:20.718Z,0.59
2023-03-11T01:25:47.711Z,0.54
2023-03-11T01:28:14.227Z,0.57
2023-03-11T01:30:42.125Z,0.59
2023-03-11T01:33:14.099Z,0.60
2023-03-11T01:35:42.236Z,0.59
2023-03-11T01:38:09.326Z,0.58
2023-03-11T01:40:42.293Z,0.62
2023-03-11T01:43:43.031Z,0.61
2023-03-11T01:46:23.441Z,0.58
2023-03-11T01:48:53.354Z,0.56
2023-03-11T01:51:35.762Z,0.59
2023-03-11T01:54:07.042Z,0.57
2023-03-11T01:56:34.605Z,0.53
2023-03-11T01:59:01.151Z,0.50
2023-03-11T02:01:27.996Z,0.49
2023-03-11T02:03:55.264Z,0.51
2023-03-11T02:06:24.087Z,0.45
2023-03-11T02:08:51.239Z,0.45
2023-03-11T02:11:27.065Z,0.43
2023-03-11T02:13:58.171Z,0.43
2023-03-11T02:16:24.800Z,0.43
2023-03-11T02:18:51.786Z,0.43
2023-03-11T02:21:28.832Z,0.45
2023-03-11T02:24:13.529Z,0.38
2023-03-11T02:26:57.099Z,0.36
2023-03-11T02:29:26.377Z,0.36
2023-03-11T02:31:53.316Z,0.36
2023-03-11T02:34:29.503Z,0.40
2023-03-11T02:36:57.011Z,0.38
2023-03-11T02:39:38.604Z,0.38
2023-03-11T02:42:28.469Z,0.37
2023-03-11T02:45:02.118Z,0.37
2023-03-11T02:47:29.073Z,0.38
2023-03-11T02:49:56.837Z,0.39
2023-03-11T02:52:27.755Z,0.42
2023-03-11T02:54:54.305Z,0.37
2023-03-11T02:57:20.759Z,0.37
2023-03-11T02:59:47.389Z,0.39
2023-03-11T03:02:13.997Z,0.43
2023-03-11T03:04:40.477Z,0.44
2023-03-11T03:07:07.173Z,0.48
2023-03-11T03:09:35.579Z,0.53
2023-03-11T03:12:02.914Z,0.54
2023-03-11T03:14:29.939Z,0.53
2023-03-11T03:16:56.799Z,0.56
2023-03-11T03:19:23.331Z,0.56
2023-03-11T03:21:49.860Z,0.55
2023-03-11T03:24:16.605Z,0.59
2023-03-11T03:26:43.131Z,0.61
2023-03-11T03:29:09.636Z,0.55
2023-03-11T03:31:36.250Z,0.52
2023-03-11T03:34:02.839Z,0.53
2023-03-11T03:36:29.546Z,0.52
2023-03-11T03:38:57.418Z,0.52
2023-03-11T03:41:23.920Z,0.51
2023-03-11T03:43:50.597Z,0.51
2023-03-11T03:46:17.301Z,0.47
2023-03-11T03:48:46.695Z,0.49
2023-03-11T03:51:14.221Z,0.48
2023-03-11T03:53:41.069Z,0.49
2023-03-11T03:56:13.317Z,0.51
2023-03-11T03:58:40.072Z,0.48
2023-03-11T04:01:07.505Z,0.46
2023-03-11T04:03:35.309Z,0.43
2023-03-11T04:06:23.220Z,0.52
2023-03-11T04:08:51.353Z,0.56
2023-03-11T04:11:18.046Z,0.54
2023-03-11T04:13:44.918Z,0.53
2023-03-11T04:16:17.493Z,0.54
2023-03-11T04:18:44.117Z,0.52
2023-03-11T04:21:11.273Z,0.54
2023-03-11T04:23:37.781Z,0.58
2023-03-11T04:26:04.601Z,0.58
2023-03-11T04:28:31.269Z,0.55
2023-03-11T04:30:57.727Z,0.55
2023-03-11T04:33:24.898Z,0.54
2023-03-11T04:35:51.448Z,0.46
2023-03-11T04:38:17.940Z,0.44
2023-03-11T04:40:44.400Z,0.44
2023-03-11T04:43:11.060Z,0.47
2023-03-11T04:45:42.340Z,0.46
2023-03-11T04:48:09.340Z,0.46
2023-03-11T04:50:35.976Z,0.45
2023-03-11T04:53:02.450Z,0.46
2023-03-11T04:55:28.975Z,0.46
2023-03-11T04:57:55.676Z,0.39
2023-03-11T05:00:24.918Z,0.40
2023-03-11T05:02:51.591Z,0.37
2023-03-11T05:05:19.730Z,0.36
2023-03-11T05:07:46.543Z,0.35
2023-03-11T05:10:13.912Z,0.37
2023-03-11T05:12:40.594Z,0.35
2023-03-11T05:15:07.670Z,0.31
2023-03-11T05:17:34.225Z,0.26
2023-03-11T05:20:00.779Z,0.22
2023-03-11T05:22:27.322Z,0.18
2023-03-11T05:24:53.787Z,0.17
2023-03-11T05:27:21.376Z,0.16
2023-03-11T05:29:47.865Z,0.16
2023-03-11T05:32:14.366Z,0.14
2023-03-11T05:34:41.284Z,0.13
2023-03-11T05:37:08.127Z,0.11
2023-03-11T05:39:34.852Z,0.11
2023-03-11T05:42:01.350Z,0.09
2023-03-11T05:44:28.260Z,0.05
2023-03-11T05:46:54.910Z,0.03
2023-03-11T05:49:21.784Z,0.01
2023-03-11T05:51:49.465Z,0.00
2023-03-11T05:54:17.086Z,-0.05
2023-03-11T05:56:45.196Z,-0.11
2023-03-11T05:59:16.602Z,-0.17
2023-03-11T06:01:43.906Z,-0.21
2023-03-11T06:04:10.837Z,-0.21
2023-03-11T06:06:40.499Z,-0.21
2023-03-11T06:09:07.964Z,-0.24
2023-03-11T06:11:34.631Z,-0.25
2023-03-11T06:14:01.057Z,-0.25
2023-03-11T06:16:27.581Z,-0.25
2023-03-11T06:18:54.311Z,-0.25
2023-03-11T06:21:23.318Z,-0.23
2023-03-11T06:23:50.528Z,-0.22
2023-03-11T06:26:20.325Z,-0.21
2023-03-11T06:28:47.767Z,-0.22
2023-03-11T06:31:19.430Z,-0.19
2023-03-11T06:33:46.679Z,-0.22
2023-03-11T06:36:14.894Z,-0.22
2023-03-11T06:38:41.802Z,-0.23
2023-03-11T06:41:08.374Z,-0.21
2023-03-11T06:43:35.931Z,-0.19
2023-03-11T06:46:09.643Z,-0.17
2023-03-11T06:48:36.146Z,-0.18
2023-03-11T06:51:02.678Z,-0.17
2023-03-11T06:53:30.430Z,-0.13
2023-03-11T06:56:07.536Z,-0.08
2023-03-11T06:58:35.980Z,-0.05
2023-03-11T07:01:04.943Z,-0.04
2023-03-11T07:03:31.885Z,-0.07
2023-03-11T07:05:58.860Z,-0.04
2023-03-11T07:08:26.005Z,-0.04
2023-03-11T07:11:06.279Z,-0.03
2023-03-11T07:13:33.201Z,-0.06
2023-03-11T07:16:01.520Z,-0.04
2023-03-11T07:18:28.555Z,-0.05
2023-03-11T07:20:55.056Z,-0.02
2023-03-11T07:23:21.794Z,0.03
2023-03-11T07:25:49.077Z,0.04
2023-03-11T07:28:15.543Z,0.05
2023-03-11T07:30:44.417Z,0.07
2023-03-11T07:33:11.057Z,0.10
2023-03-11T07:35:37.612Z,0.14
2023-03-11T07:38:04.134Z,0.16
2023-03-11T07:40:30.698Z,0.16
2023-03-11T07:42:57.206Z,0.20
2023-03-11T07:45:24.355Z,0.27
2023-03-11T07:47:50.914Z,0.28
2023-03-11T07:50:17.819Z,0.32
2023-03-11T07:52:44.513Z,0.37
2023-03-11T07:55:11.035Z,0.42
2023-03-11T07:57:37.537Z,0.44
2023-03-11T08:00:04.367Z,0.47
2023-03-11T08:02:31.106Z,0.50
2023-03-11T08:04:57.544Z,0.54
2023-03-11T08:07:24.053Z,0.56
2023-03-11T08:09:50.590Z,0.59
2023-03-11T08:12:17.200Z,0.61
2023-03-11T08:14:43.947Z,0.67
2023-03-11T08:17:10.685Z,0.68
2023-03-11T08:19:37.152Z,0.70
2023-03-11T08:22:04.030Z,0.73
2023-03-11T08:24:30.770Z,0.76
2023-03-11T08:26:57.310Z,0.83
2023-03-11T08:29:24.510Z,0.92
2023-03-11T08:31:51.452Z,0.99
2023-03-11T08:34:18.082Z,1.08
2023-03-11T08:36:44.755Z,1.09
2023-03-11T08:39:11.518Z,1.13
2023-03-11T08:41:38.145Z,1.17
2023-03-11T08:44:04.729Z,1.24
2023-03-11T08:46:37.175Z,1.31
2023-03-11T08:49:05.093Z,1.35
2023-03-11T08:51:33.442Z,1.42
2023-03-11T08:54:00.912Z,1.45
2023-03-11T08:56:27.887Z,1.48
2023-03-11T08:58:54.657Z,1.50
2023-03-11T09:01:23.384Z,1.52
2023-03-11T09:03:49.990Z,1.57
2023-03-11T09:06:17.359Z,1.63
2023-03-11T09:08:49.097Z,1.66
2023-03-11T09:11:17.503Z,1.68
2023-03-11T09:13:44.541Z,1.70
2023-03-11T09:16:17.932Z,1.78
2023-03-11T09:18:44.992Z,1.79
2023-03-11T09:21:11.760Z,1.82
2023-03-11T09:23:38.547Z,1.89
2023-03-11T09:26:05.416Z,2.00
2023-03-11T09:28:32.334Z,2.08
2023-03-11T09:30:58.877Z,2.22
2023-03-11T09:33:25.383Z,2.36
2023-03-11T09:35:51.855Z,2.40
2023-03-11T09:38:18.432Z,2.55
2023-03-11T09:40:59.472Z,2.70
2023-03-11T09:43:25.909Z,2.75
2023-03-11T09:46:07.359Z,2.85
2023-03-11T09:48:44.609Z,2.93
2023-03-11T09:51:32.793Z,3.07
2023-03-11T09:54:04.843Z,3.16
2023-03-11T09:56:35.159Z,3.26
2023-03-11T09:59:07.983Z,3.30
2023-03-11T10:01:42.706Z,3.45
2023-03-11T10:04:16.743Z,3.50
2023-03-11T10:06:45.828Z,3.58
2023-03-11T10:09:23.478Z,3.70
2023-03-11T10:12:25.872Z,3.89
2023-03-11T10:15:23.577Z,3.94
2023-03-11T10:18:02.005Z,4.06
2023-03-11T10:21:25.799Z,4.16
2023-03-11T10:24:04.103Z,4.32
2023-03-11T10:26:43.652Z,4.44
2023-03-11T10:29:24.901Z,4.58
2023-03-11T10:32:33.109Z,4.75
2023-03-11T10:35:07.142Z,4.85
2023-03-11T10:37:49.388Z,5.07
2023-03-11T10:40:32.444Z,5.13
2023-03-11T10:43:03.153Z,5.24
2023-03-11T10:45:37.353Z,5.37
2023-03-11T10:48:15.342Z,5.41
2023-03-11T10:51:01.341Z,5.50
2023-03-11T10:53:28.836Z,5.51
2023-03-11T10:55:58.438Z,5.54
2023-03-11T10:58:29.726Z,5.54
2023-03-11T11:01:14.444Z,5.62
2023-03-11T11:03:47.277Z,5.72
2023-03-11T11:06:30.926Z,5.83
2023-03-11T11:09:17.300Z,5.86
2023-03-11T11:12:04.378Z,5.91
2023-03-11T11:14:52.895Z,5.93
2023-03-11T11:17:22.926Z,6.22
2023-03-11T11:19:50.727Z,6.47
2023-03-11T11:22:20.923Z,6.61
2023-03-11T11:24:51.291Z,6.76
2023-03-11T11:27:20.419Z,6.87
2023-03-11T11:29:48.700Z,6.75
2023-03-11T11:32:15.280Z,6.79
2023-03-11T11:34:41.865Z,6.87
2023-03-11T11:37:13.295Z,7.01
2023-03-11T11:39:51.759Z,7.27
2023-03-11T11:42:22.832Z,7.44
2023-03-11T11:44:56.637Z,7.57
2023-03-11T11:47:34.813Z,7.72
2023-03-11T11:50:11.279Z,7.86
2023-03-11T11:52:45.302Z,7.89
2023-03-11T11:55:25.767Z,8.20
2023-03-11T11:57:52.765Z,8.27
2023-03-11T12:00:34.347Z,7.92
2023-03-11T12:03:30.765Z,8.08
2023-03-11T12:06:00.261Z,7.93
2023-03-11T12:09:05.655Z,7.91
2023-03-11T12:11:41.527Z,7.97
2023-03-11T12:14:08.426Z,7.98
2023-03-11T12:16:50.342Z,7.93
2023-03-11T12:19:24.173Z,8.05
2023-03-11T12:22:29.118Z,8.21
2023-03-11T12:25:14.846Z,8.02
2023-03-11T12:27:47.834Z,8.09
2023-03-11T12:30:22.792Z,8.06
2023-03-11T12:32:53.921Z,8.16
2023-03-11T12:35:25.113Z,8.12
2023-03-11T12:38:01.319Z,8.15
2023-03-11T12:40:42.907Z,8.35
2023-03-11T12:43:47.970Z,8.45
2023-03-11T12:46:19.035Z,8.59
2023-03-11T12:48:49.683Z,8.76
2023-03-11T12:51:34.372Z,8.61
2023-03-11T12:54:34.094Z,8.59
2023-03-11T12:57:23.812Z,8.89
2023-03-11T13:00:12.150Z,8.70
2023-03-11T13:03:09.433Z,8.74
2023-03-11T13:06:05.459Z,8.66
2023-03-11T13:08:44.738Z,8.87
2023-03-11T13:11:33.046Z,8.93
2023-03-11T13:14:14.971Z,9.01
2023-03-11T13:16:42.870Z,8.76
2023-03-11T13:19:28.107Z,8.74
2023-03-11T13:21:59.436Z,8.97
2023-03-11T13:24:26.074Z,9.03
2023-03-11T13:26:58.568Z,9.29
2023-03-11T13:29:27.714Z,9.19
2023-03-11T13:32:16.090Z,9.26
2023-03-11T13:34:50.869Z,9.42
2023-03-11T13:37:36.196Z,9.47
2023-03-11T13:40:13.998Z,9.28
2023-03-11T13:42:46.873Z,8.78
2023-03-11T13:45:26.724Z,8.54
2023-03-11T13:48:03.168Z,8.61
2023-03-11T13:50:35.464Z,8.83
2023-03-11T13:53:09.676Z,9.00
2023-03-11T13:55:44.996Z,9.19
2023-03-11T13:58:29.764Z,8.79
2023-03-11T14:01:01.739Z,8.68
2023-03-11T14:03:37.010Z,8.82
2023-03-11T14:06:08.032Z,9.05
2023-03-11T14:08:36.693Z,9.35
2023-03-11T14:11:12.409Z,9.51
2023-03-11T14:13:53.802Z,9.51
2023-03-11T14:16:25.042Z,9.61
2023-03-11T14:19:20.918Z,9.24
2023-03-11T14:21:51.358Z,8.94
2023-03-11T14:24:20.585Z,9.07
2023-03-11T14:26:48.665Z,9.04
2023-03-11T14:29:20.013Z,9.10
2023-03-11T14:31:47.672Z,9.11
2023-03-11T14:34:20.292Z,8.76
2023-03-11T14:37:00.666Z,8.68
2023-03-11T14:39:35.614Z,8.58
2023-03-11T14:42:06.284Z,8.69
2023-03-11T14:44:37.685Z,8.78
2023-03-11T14:47:32.554Z,8.78
2023-03-11T14:50:00.223Z,8.91
2023-03-11T14:52:43.628Z,8.83
2023-03-11T14:55:17.078Z,8.56
2023-03-11T14:57:48.560Z,8.30
2023-03-11T15:00:21.531Z,8.20
2023-03-11T15:03:03.730Z,7.91
2023-03-11T15:05:53.551Z,7.84
2023-03-11T15:08:21.958Z,7.71
2023-03-11T15:11:03.855Z,7.83
2023-03-11T15:13:30.642Z,7.90
2023-03-11T15:16:02.494Z,8.11
2023-03-11T15:18:37.998Z,8.18
2023-03-11T15:21:06.281Z,8.19
2023-03-11T15:23:35.034Z,8.11
2023-03-11T15:26:02.114Z,8.17
2023-03-11T15:28:31.327Z,8.10
2023-03-11T15:31:17.689Z,8.01
2023-03-11T15:33:45.073Z,8.00
2023-03-11T15:36:31.892Z,8.03
2023-03-11T15:39:19.773Z,8.12
2023-03-11T15:41:57.417Z,7.83
2023-03-11T15:44:36.990Z,7.74
2023-03-11T15:47:04.057Z,7.65
2023-03-11T15:49:30.980Z,7.61
2023-03-11T15:52:01.877Z,7.59
2023-03-11T15:54:28.987Z,7.50
2023-03-11T15:56:58.401Z,7.48
2023-03-11T15:59:25.473Z,7.51
2023-03-11T16:01:53.161Z,7.48
2023-03-11T16:04:20.961Z,7.48
2023-03-11T16:06:59.504Z,7.45
2023-03-11T16:09:31.625Z,7.32
2023-03-11T16:11:58.172Z,7.25
2023-03-11T16:14:24.648Z,7.08
2023-03-11T16:16:51.426Z,6.97
2023-03-11T16:19:17.997Z,6.97
2023-03-11T16:21:50.097Z,6.96
2023-03-11T16:24:20.982Z,6.95
2023-03-11T16:26:47.795Z,6.93
2023-03-11T16:29:19.248Z,6.95
2023-03-11T16:31:46.114Z,6.95
2023-03-11T16:34:12.695Z,6.91
2023-03-11T16:36:39.223Z,6.92
2023-03-11T16:39:05.826Z,6.80
2023-03-11T16:41:44.591Z,6.82
2023-03-11T16:44:12.278Z,6.72
2023-03-11T16:46:40.062Z,6.62
2023-03-11T16:49:06.965Z,6.49
2023-03-11T16:51:34.165Z,6.42
2023-03-11T16:54:01.367Z,6.42
2023-03-11T16:56:27.940Z,6.43
2023-03-11T16:58:54.587Z,6.42
2023-03-11T17:01:21.858Z,6.41
2023-03-11T17:03:50.762Z,6.46
2023-03-11T17:06:18.384Z,6.33
2023-03-11T17:08:49.483Z,6.32
2023-03-11T17:11:18.705Z,6.37
2023-03-11T17:13:46.992Z,6.34
2023-03-11T17:16:13.800Z,6.25
2023-03-11T17:18:40.660Z,6.24
2023-03-11T17:21:11.423Z,6.25
2023-03-11T17:23:44.383Z,6.24
2023-03-11T17:26:14.045Z,6.22
2023-03-11T17:28:40.867Z,6.20
2023-03-11T17:31:13.038Z,6.15
2023-03-11T17:33:39.908Z,6.08
2023-03-11T17:36:11.816Z,5.96
2023-03-11T17:38:38.941Z,5.89
2023-03-11T17:41:15.453Z,5.84
2023-03-11T17:43:42.648Z,5.72
2023-03-11T17:46:11.573Z,5.63
2023-03-11T17:48:38.405Z,5.54
2023-03-11T17:51:07.358Z,5.46
2023-03-11T17:53:36.117Z,5.37
2023-03-11T17:56:05.482Z,5.31
2023-03-11T17:58:32.261Z,5.17
2023-03-11T18:01:04.187Z,5.14
2023-03-11T18:03:31.438Z,5.00
2023-03-11T18:06:03.342Z,4.95
2023-03-11T18:08:30.703Z,4.86
2023-03-11T18:11:04.276Z,4.80
2023-03-11T18:13:32.304Z,4.69
2023-03-11T18:16:01.658Z,4.65
2023-03-11T18:18:29.408Z,4.60
2023-03-11T18:21:01.340Z,4.51
2023-03-11T18:23:31.117Z,4.46
2023-03-11T18:25:57.745Z,4.43
2023-03-11T18:28:24.859Z,4.32
2023-03-11T18:30:53.844Z,4.27
2023-03-11T18:33:21.996Z,4.22
2023-03-11T18:35:51.837Z,4.15
2023-03-11T18:38:18.284Z,4.08
2023-03-11T18:40:44.783Z,4.02
2023-03-11T18:43:14.336Z,4.02
2023-03-11T18:45:41.011Z,3.94
2023-03-11T18:48:13.699Z,3.90
2023-03-11T18:50:40.241Z,3.88
2023-03-11T18:53:09.393Z,3.86
2023-03-11T18:55:39.005Z,3.85
2023-03-11T18:58:09.317Z,3.81
2023-03-11T19:00:39.277Z,3.79
2023-03-11T19:03:12.803Z,3.76
2023-03-11T19:05:40.078Z,3.74
2023-03-11T19:08:07.175Z,3.73
2023-03-11T19:10:34.136Z,3.70
2023-03-11T19:13:00.984Z,3.67
2023-03-11T19:15:28.017Z,3.69
2023-03-11T19:18:06.315Z,3.69
2023-03-11T19:20:39.757Z,3.71
2023-03-11T19:23:06.989Z,3.73
2023-03-11T19:25:36.413Z,3.74
2023-03-11T19:28:02.947Z,3.70
2023-03-11T19:30:29.522Z,3.70
2023-03-11T19:32:56.061Z,3.70
2023-03-11T19:35:23.891Z,3.71
2023-03-11T19:37:50.749Z,3.71
2023-03-11T19:40:17.705Z,3.70
2023-03-11T19:42:44.255Z,3.68
2023-03-11T19:45:11.620Z,3.69
2023-03-11T19:47:38.367Z,3.63
2023-03-11T19:50:05.433Z,3.64
2023-03-11T19:52:32.124Z,3.63
2023-03-11T19:54:59.023Z,3.58
2023-03-11T19:57:25.570Z,3.59
2023-03-11T19:59:52.102Z,3.52
2023-03-11T20:02:18.754Z,3.58
2023-03-11T20:04:45.448Z,3.61
2023-03-11T20:07:12.112Z,3.56
2023-03-11T20:09:38.732Z,3.57
2023-03-11T20:12:05.458Z,3.52
2023-03-11T20:14:32.153Z,3.46
2023-03-11T20:16:58.746Z,3.39
2023-03-11T20:19:25.519Z,3.36
2023-03-11T20:21:52.258Z,3.30
2023-03-11T20:24:18.862Z,3.24
2023-03-11T20:26:45.343Z,3.18
2023-03-11T20:29:11.966Z,3.13
2023-03-11T20:31:39.176Z,3.07
2023-03-11T20:34:05.860Z,3.04
2023-03-11T20:36:33.811Z,2.99
2023-03-11T20:39:00.551Z,2.96
2023-03-11T20:41:28.241Z,2.97
2023-03-11T20:43:56.771Z,2.92
2023-03-11T20:46:23.904Z,2.88
2023-03-11T20:48:50.638Z,2.81
2023-03-11T20:51:20.514Z,2.81
2023-03-11T20:53:47.516Z,2.74
2023-03-11T20:56:17.047Z,2.72
2023-03-11T20:58:45.679Z,2.67
2023-03-11T21:01:17.605Z,2.65
2023-03-11T21:03:44.835Z,2.60
2023-03-11T21:06:20.847Z,2.56
2023-03-11T21:08:47.709Z,2.54
2023-03-11T21:11:15.003Z,2.53
2023-03-11T21:13:41.838Z,2.52
2023-03-11T21:16:09.335Z,2.52
2023-03-11T21:18:36.234Z,2.50
2023-03-11T21:21:03.830Z,2.47
2023-03-11T21:23:30.609Z,2.47
2023-03-11T21:25:59.075Z,2.46
2023-03-11T21:28:25.921Z,2.44
2023-03-11T21:31:04.929Z,2.46
2023-03-11T21:33:32.269Z,2.46
2023-03-11T21:36:00.753Z,2.45
2023-03-11T21:38:27.906Z,2.42
2023-03-11T21:41:08.167Z,2.47
2023-03-11T21:43:34.975Z,2.47
2023-03-11T21:46:02.069Z,2.48
2023-03-11T21:48:28.984Z,2.49
2023-03-11T21:50:55.485Z,2.50
2023-03-11T21:53:22.292Z,2.51
2023-03-11T21:55:50.781Z,2.53
2023-03-11T21:58:17.773Z,2.51
2023-03-11T22:00:45.036Z,2.51
2023-03-11T22:03:11.708Z,2.49
2023-03-11T22:05:38.754Z,2.53
2023-03-11T22:08:05.276Z,2.51
2023-03-11T22:10:32.409Z,2.53
2023-03-11T22:12:59.068Z,2.54
2023-03-11T22:15:25.846Z,2.54
2023-03-11T22:17:52.818Z,2.56
2023-03-11T22:20:19.406Z,2.55
2023-03-11T22:22:46.270Z,2.56
2023-03-11T22:25:13.100Z,2.55
2023-03-11T22:27:40.266Z,2.56
2023-03-11T22:30:07.808Z,2.53
2023-03-11T22:32:34.942Z,2.54
2023-03-11T22:35:01.420Z,2.51
2023-03-11T22:37:28.153Z,2.50
2023-03-11T22:39:54.728Z,2.47
2023-03-11T22:42:21.174Z,2.47
2023-03-11T22:44:47.621Z,2.45
2023-03-11T22:47:14.176Z,2.44
2023-03-11T22:49:40.734Z,2.42
2023-03-11T22:52:07.263Z,2.42
2023-03-11T22:54:33.877Z,2.42
2023-03-11T22:57:00.377Z,2.43
2023-03-11T22:59:30.569Z,2.38
2023-03-11T23:02:03.850Z,2.36
2023-03-11T23:04:30.398Z,2.29
2023-03-11T23:06:56.942Z,2.26
2023-03-11T23:09:24.279Z,2.22
2023-03-11T23:11:52.782Z,2.22
2023-03-11T23:14:23.732Z,2.17
2023-03-11T23:16:54.785Z,2.11
2023-03-11T23:19:21.338Z,2.12
2023-03-11T23:21:48.067Z,2.08
2023-03-11T23:24:14.810Z,2.05
2023-03-11T23:26:41.347Z,2.05
2023-03-11T23:29:07.859Z,1.98
2023-03-11T23:31:34.569Z,1.97
2023-03-11T23:34:01.153Z,1.95
2023-03-11T23:36:30.286Z,1.98
2023-03-11T23:38:57.653Z,2.03
2023-03-11T23:41:24.195Z,2.09
2023-03-11T23:43:50.878Z,2.15
2023-03-11T23:46:17.563Z,2.21
2023-03-11T23:48:44.173Z,2.27
2023-03-11T23:51:10.896Z,2.29
2023-03-11T23:53:38.009Z,2.36
2023-03-11T23:56:17.071Z,2.45
2023-03-11T23:58:43.988Z,2.45
